sensor_id;sensor_type;location;lat;lon;timestamp;temperature;humidity
30148;DHT22;16960;49.404;8.248;2023-05-19T00:00:04;21.60;40.10
30148;DHT22;16960;49.404;8.248;2023-05-19T00:02:32;21.60;40.10
30148;DHT22;16960;49.404;8.248;2023-05-19T00:05:00;21.50;40.20
30148;DHT22;16960;49.404;8.248;2023-05-19T00:07:30;21.50;40.20
30148;DHT22;16960;49.404;8.248;2023-05-19T00:09:58;21.50;40.20
30148;DHT22;16960;49.404;8.248;2023-05-19T00:12:26;21.50;40.20
30148;DHT22;16960;49.404;8.248;2023-05-19T00:14:53;21.50;40.20
30148;DHT22;16960;49.404;8.248;2023-05-19T00:17:21;21.50;40.20
30148;DHT22;16960;49.404;8.248;2023-05-19T00:19:48;21.50;40.30
30148;DHT22;16960;49.404;8.248;2023-05-19T00:22:15;21.50;40.30
30148;DHT22;16960;49.404;8.248;2023-05-19T00:24:42;21.50;40.30
30148;DHT22;16960;49.404;8.248;2023-05-19T00:27:09;21.40;40.20
30148;DHT22;16960;49.404;8.248;2023-05-19T00:29:37;21.40;40.20
30148;DHT22;16960;49.404;8.248;2023-05-19T00:32:04;21.40;40.30
30148;DHT22;16960;49.404;8.248;2023-05-19T00:34:32;21.40;40.30
30148;DHT22;16960;49.404;8.248;2023-05-19T00:36:59;21.40;40.30
30148;DHT22;16960;49.404;8.248;2023-05-19T00:39:26;21.40;40.40
30148;DHT22;16960;49.404;8.248;2023-05-19T00:41:53;21.40;40.40
30148;DHT22;16960;49.404;8.248;2023-05-19T00:44:20;21.30;40.40
30148;DHT22;16960;49.404;8.248;2023-05-19T00:46:48;21.30;40.40
30148;DHT22;16960;49.404;8.248;2023-05-19T00:49:15;21.30;40.40
30148;DHT22;16960;49.404;8.248;2023-05-19T00:51:42;21.30;40.40
30148;DHT22;16960;49.404;8.248;2023-05-19T00:54:09;21.30;40.40
30148;DHT22;16960;49.404;8.248;2023-05-19T00:56:36;21.30;40.40
30148;DHT22;16960;49.404;8.248;2023-05-19T00:59:03;21.30;40.40
30148;DHT22;16960;49.404;8.248;2023-05-19T01:01:31;21.30;40.40
30148;DHT22;16960;49.404;8.248;2023-05-19T01:03:59;21.30;40.40
30148;DHT22;16960;49.404;8.248;2023-05-19T01:06:29;21.30;40.50
30148;DHT22;16960;49.404;8.248;2023-05-19T01:08:55;21.20;40.40
30148;DHT22;16960;49.404;8.248;2023-05-19T01:11:24;21.20;40.40
30148;DHT22;16960;49.404;8.248;2023-05-19T01:13:51;21.20;40.40
30148;DHT22;16960;49.404;8.248;2023-05-19T01:16:23;21.20;40.40
30148;DHT22;16960;49.404;8.248;2023-05-19T01:18:56;21.20;41.20
30148;DHT22;16960;49.404;8.248;2023-05-19T01:21:50;21.20;40.40
30148;DHT22;16960;49.404;8.248;2023-05-19T01:24:30;21.20;40.50
30148;DHT22;16960;49.404;8.248;2023-05-19T01:27:20;21.20;40.50
30148;DHT22;16960;49.404;8.248;2023-05-19T01:30:17;21.20;40.50
30148;DHT22;16960;49.404;8.248;2023-05-19T01:32:48;21.10;40.60
30148;DHT22;16960;49.404;8.248;2023-05-19T01:35:17;21.20;40.60
30148;DHT22;16960;49.404;8.248;2023-05-19T01:37:44;21.10;40.60
30148;DHT22;16960;49.404;8.248;2023-05-19T01:40:12;21.10;40.60
30148;DHT22;16960;49.404;8.248;2023-05-19T01:42:40;21.10;40.60
30148;DHT22;16960;49.404;8.248;2023-05-19T01:45:08;21.10;40.70
30148;DHT22;16960;49.404;8.248;2023-05-19T01:47:40;21.10;40.70
30148;DHT22;16960;49.404;8.248;2023-05-19T01:50:08;21.10;40.70
30148;DHT22;16960;49.404;8.248;2023-05-19T01:52:35;21.10;40.70
30148;DHT22;16960;49.404;8.248;2023-05-19T01:55:03;21.00;40.60
30148;DHT22;16960;49.404;8.248;2023-05-19T01:57:42;21.10;40.70
30148;DHT22;16960;49.404;8.248;2023-05-19T02:00:15;21.10;40.70
30148;DHT22;16960;49.404;8.248;2023-05-19T02:02:54;21.10;40.70
30148;DHT22;16960;49.404;8.248;2023-05-19T02:05:26;21.10;40.70
30148;DHT22;16960;49.404;8.248;2023-05-19T02:08:00;21.00;40.70
30148;DHT22;16960;49.404;8.248;2023-05-19T02:10:32;21.00;40.70
30148;DHT22;16960;49.404;8.248;2023-05-19T02:13:04;21.00;40.70
30148;DHT22;16960;49.404;8.248;2023-05-19T02:15:36;21.00;40.70
30148;DHT22;16960;49.404;8.248;2023-05-19T02:18:08;21.00;40.70
30148;DHT22;16960;49.404;8.248;2023-05-19T02:20:36;21.00;40.70
30148;DHT22;16960;49.404;8.248;2023-05-19T02:23:03;20.90;40.70
30148;DHT22;16960;49.404;8.248;2023-05-19T02:25:30;20.90;40.70
30148;DHT22;16960;49.404;8.248;2023-05-19T02:27:57;21.00;40.80
30148;DHT22;16960;49.404;8.248;2023-05-19T02:30:24;20.90;40.80
30148;DHT22;16960;49.404;8.248;2023-05-19T02:32:51;20.90;40.80
30148;DHT22;16960;49.404;8.248;2023-05-19T02:35:20;20.90;40.70
30148;DHT22;16960;49.404;8.248;2023-05-19T02:37:47;20.90;40.80
30148;DHT22;16960;49.404;8.248;2023-05-19T02:40:14;20.90;40.80
30148;DHT22;16960;49.404;8.248;2023-05-19T02:42:41;20.90;40.80
30148;DHT22;16960;49.404;8.248;2023-05-19T02:45:08;20.90;40.80
30148;DHT22;16960;49.404;8.248;2023-05-19T02:47:35;20.90;40.90
30148;DHT22;16960;49.404;8.248;2023-05-19T02:50:03;20.90;40.90
30148;DHT22;16960;49.404;8.248;2023-05-19T02:52:31;20.90;40.90
30148;DHT22;16960;49.404;8.248;2023-05-19T02:54:58;20.90;40.90
30148;DHT22;16960;49.404;8.248;2023-05-19T02:57:25;20.80;40.80
30148;DHT22;16960;49.404;8.248;2023-05-19T02:59:52;20.80;40.80
30148;DHT22;16960;49.404;8.248;2023-05-19T03:02:19;20.80;40.80
30148;DHT22;16960;49.404;8.248;2023-05-19T03:04:46;20.80;40.80
30148;DHT22;16960;49.404;8.248;2023-05-19T03:07:13;20.80;40.80
30148;DHT22;16960;49.404;8.248;2023-05-19T03:09:42;20.80;40.90
30148;DHT22;16960;49.404;8.248;2023-05-19T03:12:09;20.80;40.80
30148;DHT22;16960;49.404;8.248;2023-05-19T03:14:36;20.80;40.90
30148;DHT22;16960;49.404;8.248;2023-05-19T03:17:04;20.80;40.90
30148;DHT22;16960;49.404;8.248;2023-05-19T03:19:32;20.80;40.90
30148;DHT22;16960;49.404;8.248;2023-05-19T03:21:59;20.80;40.90
30148;DHT22;16960;49.404;8.248;2023-05-19T03:24:25;20.70;40.90
30148;DHT22;16960;49.404;8.248;2023-05-19T03:26:54;20.80;40.90
30148;DHT22;16960;49.404;8.248;2023-05-19T03:29:21;20.70;41.00
30148;DHT22;16960;49.404;8.248;2023-05-19T03:31:48;20.70;40.90
30148;DHT22;16960;49.404;8.248;2023-05-19T03:34:16;20.70;41.00
30148;DHT22;16960;49.404;8.248;2023-05-19T03:36:43;20.70;41.00
30148;DHT22;16960;49.404;8.248;2023-05-19T03:39:11;20.70;41.00
30148;DHT22;16960;49.404;8.248;2023-05-19T03:41:38;20.70;41.00
30148;DHT22;16960;49.404;8.248;2023-05-19T03:44:06;20.70;41.00
30148;DHT22;16960;49.404;8.248;2023-05-19T03:46:33;20.70;41.00
30148;DHT22;16960;49.404;8.248;2023-05-19T03:49:00;20.70;41.00
30148;DHT22;16960;49.404;8.248;2023-05-19T03:51:27;20.70;41.10
30148;DHT22;16960;49.404;8.248;2023-05-19T03:53:54;20.70;41.10
30148;DHT22;16960;49.404;8.248;2023-05-19T03:56:21;20.60;41.00
30148;DHT22;16960;49.404;8.248;2023-05-19T03:58:51;20.60;41.00
30148;DHT22;16960;49.404;8.248;2023-05-19T04:01:20;20.60;41.00
30148;DHT22;16960;49.404;8.248;2023-05-19T04:03:47;20.60;41.00
30148;DHT22;16960;49.404;8.248;2023-05-19T04:06:14;20.60;41.00
30148;DHT22;16960;49.404;8.248;2023-05-19T04:08:42;20.60;41.00
30148;DHT22;16960;49.404;8.248;2023-05-19T04:11:09;20.60;41.00
30148;DHT22;16960;49.404;8.248;2023-05-19T04:13:37;20.60;41.00
30148;DHT22;16960;49.404;8.248;2023-05-19T04:16:05;20.60;41.00
30148;DHT22;16960;49.404;8.248;2023-05-19T04:18:33;20.60;41.10
30148;DHT22;16960;49.404;8.248;2023-05-19T04:21:00;20.60;41.90
30148;DHT22;16960;49.404;8.248;2023-05-19T04:23:27;20.60;41.30
30148;DHT22;16960;49.404;8.248;2023-05-19T04:25:54;20.60;41.20
30148;DHT22;16960;49.404;8.248;2023-05-19T04:28:21;20.60;41.30
30148;DHT22;16960;49.404;8.248;2023-05-19T04:30:49;20.60;41.20
30148;DHT22;16960;49.404;8.248;2023-05-19T04:33:16;20.50;41.20
30148;DHT22;16960;49.404;8.248;2023-05-19T04:35:46;20.50;41.20
30148;DHT22;16960;49.404;8.248;2023-05-19T04:38:14;20.50;41.20
30148;DHT22;16960;49.404;8.248;2023-05-19T04:40:43;20.50;41.20
30148;DHT22;16960;49.404;8.248;2023-05-19T04:43:10;20.50;41.20
30148;DHT22;16960;49.404;8.248;2023-05-19T04:45:37;20.50;41.20
30148;DHT22;16960;49.404;8.248;2023-05-19T04:48:07;20.50;41.20
30148;DHT22;16960;49.404;8.248;2023-05-19T04:50:34;20.50;41.20
30148;DHT22;16960;49.404;8.248;2023-05-19T04:53:04;20.50;41.90
30148;DHT22;16960;49.404;8.248;2023-05-19T04:55:31;20.50;41.20
30148;DHT22;16960;49.404;8.248;2023-05-19T04:57:58;20.50;41.20
30148;DHT22;16960;49.404;8.248;2023-05-19T05:00:26;20.50;41.20
30148;DHT22;16960;49.404;8.248;2023-05-19T05:02:54;20.50;41.20
30148;DHT22;16960;49.404;8.248;2023-05-19T05:05:22;20.50;41.20
30148;DHT22;16960;49.404;8.248;2023-05-19T05:07:49;20.50;41.20
30148;DHT22;16960;49.404;8.248;2023-05-19T05:10:19;20.50;41.20
30148;DHT22;16960;49.404;8.248;2023-05-19T05:12:47;20.50;41.20
30148;DHT22;16960;49.404;8.248;2023-05-19T05:15:15;20.50;41.30
30148;DHT22;16960;49.404;8.248;2023-05-19T05:17:43;20.40;41.20
30148;DHT22;16960;49.404;8.248;2023-05-19T05:20:11;20.50;42.00
30148;DHT22;16960;49.404;8.248;2023-05-19T05:22:39;20.40;41.20
30148;DHT22;16960;49.404;8.248;2023-05-19T05:25:07;20.50;41.30
30148;DHT22;16960;49.404;8.248;2023-05-19T05:27:36;20.40;41.20
30148;DHT22;16960;49.404;8.248;2023-05-19T05:30:04;20.40;41.20
30148;DHT22;16960;49.404;8.248;2023-05-19T05:32:31;20.40;41.30
30148;DHT22;16960;49.404;8.248;2023-05-19T05:34:58;20.40;41.30
30148;DHT22;16960;49.404;8.248;2023-05-19T05:37:25;20.40;41.40
30148;DHT22;16960;49.404;8.248;2023-05-19T05:39:52;20.40;41.30
30148;DHT22;16960;49.404;8.248;2023-05-19T05:42:18;20.40;41.30
30148;DHT22;16960;49.404;8.248;2023-05-19T05:44:47;20.40;41.30
30148;DHT22;16960;49.404;8.248;2023-05-19T05:47:14;20.40;41.40
30148;DHT22;16960;49.404;8.248;2023-05-19T05:49:41;20.40;41.40
30148;DHT22;16960;49.404;8.248;2023-05-19T05:52:10;20.40;41.40
30148;DHT22;16960;49.404;8.248;2023-05-19T05:54:38;20.40;41.50
30148;DHT22;16960;49.404;8.248;2023-05-19T05:57:06;20.40;41.50
30148;DHT22;16960;49.404;8.248;2023-05-19T05:59:33;20.40;41.50
30148;DHT22;16960;49.404;8.248;2023-05-19T06:02:02;20.40;41.50
30148;DHT22;16960;49.404;8.248;2023-05-19T06:04:29;20.40;41.50
30148;DHT22;16960;49.404;8.248;2023-05-19T06:06:56;20.40;41.50
30148;DHT22;16960;49.404;8.248;2023-05-19T06:09:26;20.40;41.50
30148;DHT22;16960;49.404;8.248;2023-05-19T06:11:54;20.40;41.50
30148;DHT22;16960;49.404;8.248;2023-05-19T06:14:21;20.40;41.50
30148;DHT22;16960;49.404;8.248;2023-05-19T06:16:48;20.40;41.50
30148;DHT22;16960;49.404;8.248;2023-05-19T06:19:17;20.40;41.50
30148;DHT22;16960;49.404;8.248;2023-05-19T06:21:44;20.40;41.40
30148;DHT22;16960;49.404;8.248;2023-05-19T06:24:11;20.40;41.50
30148;DHT22;16960;49.404;8.248;2023-05-19T06:26:38;20.40;41.40
30148;DHT22;16960;49.404;8.248;2023-05-19T06:29:05;20.40;41.40
30148;DHT22;16960;49.404;8.248;2023-05-19T06:31:32;20.40;41.50
30148;DHT22;16960;49.404;8.248;2023-05-19T06:33:59;20.40;41.40
30148;DHT22;16960;49.404;8.248;2023-05-19T06:36:27;20.40;41.50
30148;DHT22;16960;49.404;8.248;2023-05-19T06:38:54;20.40;41.40
30148;DHT22;16960;49.404;8.248;2023-05-19T06:41:21;20.40;41.40
30148;DHT22;16960;49.404;8.248;2023-05-19T06:43:48;20.40;41.30
30148;DHT22;16960;49.404;8.248;2023-05-19T06:46:14;20.40;41.30
30148;DHT22;16960;49.404;8.248;2023-05-19T06:48:42;20.50;41.40
30148;DHT22;16960;49.404;8.248;2023-05-19T06:51:09;20.50;41.40
30148;DHT22;16960;49.404;8.248;2023-05-19T06:53:37;20.50;41.40
30148;DHT22;16960;49.404;8.248;2023-05-19T06:56:05;20.50;41.50
30148;DHT22;16960;49.404;8.248;2023-05-19T06:58:32;20.50;41.50
30148;DHT22;16960;49.404;8.248;2023-05-19T07:00:59;20.50;41.50
30148;DHT22;16960;49.404;8.248;2023-05-19T07:03:26;20.50;41.50
30148;DHT22;16960;49.404;8.248;2023-05-19T07:05:53;20.50;41.40
30148;DHT22;16960;49.404;8.248;2023-05-19T07:08:20;20.50;41.30
30148;DHT22;16960;49.404;8.248;2023-05-19T07:10:48;20.50;41.30
30148;DHT22;16960;49.404;8.248;2023-05-19T07:13:15;20.50;41.30
30148;DHT22;16960;49.404;8.248;2023-05-19T07:15:42;20.50;41.30
30148;DHT22;16960;49.404;8.248;2023-05-19T07:18:09;20.50;41.30
30148;DHT22;16960;49.404;8.248;2023-05-19T07:20:36;20.60;42.00
30148;DHT22;16960;49.404;8.248;2023-05-19T07:23:03;20.50;41.30
30148;DHT22;16960;49.404;8.248;2023-05-19T07:25:30;20.50;41.30
30148;DHT22;16960;49.404;8.248;2023-05-19T07:27:59;20.50;41.30
30148;DHT22;16960;49.404;8.248;2023-05-19T07:30:26;20.50;41.30
30148;DHT22;16960;49.404;8.248;2023-05-19T07:32:54;20.50;41.30
30148;DHT22;16960;49.404;8.248;2023-05-19T07:35:21;20.50;41.30
30148;DHT22;16960;49.404;8.248;2023-05-19T07:37:48;20.50;41.30
30148;DHT22;16960;49.404;8.248;2023-05-19T07:40:15;20.50;41.30
30148;DHT22;16960;49.404;8.248;2023-05-19T07:42:42;20.50;41.20
30148;DHT22;16960;49.404;8.248;2023-05-19T07:45:11;20.50;41.20
30148;DHT22;16960;49.404;8.248;2023-05-19T07:47:38;20.50;41.20
30148;DHT22;16960;49.404;8.248;2023-05-19T07:50:06;20.50;41.20
30148;DHT22;16960;49.404;8.248;2023-05-19T07:52:33;20.50;41.20
30148;DHT22;16960;49.404;8.248;2023-05-19T07:55:00;20.50;41.20
30148;DHT22;16960;49.404;8.248;2023-05-19T07:57:27;20.60;41.10
30148;DHT22;16960;49.404;8.248;2023-05-19T07:59:54;20.50;41.10
30148;DHT22;16960;49.404;8.248;2023-05-19T08:02:22;20.60;41.00
30148;DHT22;16960;49.404;8.248;2023-05-19T08:04:49;20.60;41.00
30148;DHT22;16960;49.404;8.248;2023-05-19T08:07:16;20.60;41.70
30148;DHT22;16960;49.404;8.248;2023-05-19T08:09:43;20.60;41.00
30148;DHT22;16960;49.404;8.248;2023-05-19T08:12:10;20.60;41.00
30148;DHT22;16960;49.404;8.248;2023-05-19T08:14:36;20.60;41.00
30148;DHT22;16960;49.404;8.248;2023-05-19T08:17:03;20.60;41.00
30148;DHT22;16960;49.404;8.248;2023-05-19T08:19:32;20.60;41.00
30148;DHT22;16960;49.404;8.248;2023-05-19T08:21:59;20.60;41.00
30148;DHT22;16960;49.404;8.248;2023-05-19T08:24:26;20.70;41.00
30148;DHT22;16960;49.404;8.248;2023-05-19T08:26:55;20.70;41.00
30148;DHT22;16960;49.404;8.248;2023-05-19T08:29:21;20.70;41.00
30148;DHT22;16960;49.404;8.248;2023-05-19T08:31:48;20.70;41.20
30148;DHT22;16960;49.404;8.248;2023-05-19T08:34:17;20.70;41.10
30148;DHT22;16960;49.404;8.248;2023-05-19T08:36:45;20.70;41.00
30148;DHT22;16960;49.404;8.248;2023-05-19T08:39:12;20.70;41.00
30148;DHT22;16960;49.404;8.248;2023-05-19T08:41:40;20.70;41.00
30148;DHT22;16960;49.404;8.248;2023-05-19T08:44:07;20.80;41.00
30148;DHT22;16960;49.404;8.248;2023-05-19T08:46:34;20.70;41.00
30148;DHT22;16960;49.404;8.248;2023-05-19T08:49:07;20.80;41.10
30148;DHT22;16960;49.404;8.248;2023-05-19T08:51:40;20.80;41.20
30148;DHT22;16960;49.404;8.248;2023-05-19T08:54:14;20.80;41.20
30148;DHT22;16960;49.404;8.248;2023-05-19T08:56:43;20.80;41.20
30148;DHT22;16960;49.404;8.248;2023-05-19T08:59:12;20.90;41.20
30148;DHT22;16960;49.404;8.248;2023-05-19T09:01:41;20.90;41.20
30148;DHT22;16960;49.404;8.248;2023-05-19T09:04:09;20.90;41.20
30148;DHT22;16960;49.404;8.248;2023-05-19T09:06:36;20.90;41.10
30148;DHT22;16960;49.404;8.248;2023-05-19T09:09:05;21.00;41.00
30148;DHT22;16960;49.404;8.248;2023-05-19T09:11:34;21.00;41.00
30148;DHT22;16960;49.404;8.248;2023-05-19T09:14:02;21.00;41.60
30148;DHT22;16960;49.404;8.248;2023-05-19T09:16:29;21.00;40.90
30148;DHT22;16960;49.404;8.248;2023-05-19T09:18:57;21.00;40.80
30148;DHT22;16960;49.404;8.248;2023-05-19T09:21:28;21.10;40.90
30148;DHT22;16960;49.404;8.248;2023-05-19T09:24:03;21.10;40.80
30148;DHT22;16960;49.404;8.248;2023-05-19T09:26:37;21.10;40.70
30148;DHT22;16960;49.404;8.248;2023-05-19T09:29:10;21.20;40.70
30148;DHT22;16960;49.404;8.248;2023-05-19T09:31:37;21.20;40.70
30148;DHT22;16960;49.404;8.248;2023-05-19T09:34:11;21.20;40.60
30148;DHT22;16960;49.404;8.248;2023-05-19T09:36:39;21.20;40.60
30148;DHT22;16960;49.404;8.248;2023-05-19T09:39:12;21.30;40.60
30148;DHT22;16960;49.404;8.248;2023-05-19T09:41:40;21.30;40.50
30148;DHT22;16960;49.404;8.248;2023-05-19T09:44:12;21.40;40.40
30148;DHT22;16960;49.404;8.248;2023-05-19T09:46:46;21.40;40.40
30148;DHT22;16960;49.404;8.248;2023-05-19T09:49:18;21.40;40.30
30148;DHT22;16960;49.404;8.248;2023-05-19T09:51:48;21.40;40.30
30148;DHT22;16960;49.404;8.248;2023-05-19T09:54:15;21.50;40.30
30148;DHT22;16960;49.404;8.248;2023-05-19T09:56:44;21.50;40.90
30148;DHT22;16960;49.404;8.248;2023-05-19T09:59:13;21.60;40.10
30148;DHT22;16960;49.404;8.248;2023-05-19T10:01:41;21.70;40.10
30148;DHT22;16960;49.404;8.248;2023-05-19T10:04:11;21.70;40.80
30148;DHT22;16960;49.404;8.248;2023-05-19T10:06:39;21.70;40.00
30148;DHT22;16960;49.404;8.248;2023-05-19T10:09:06;21.70;39.90
30148;DHT22;16960;49.404;8.248;2023-05-19T10:11:33;21.80;39.90
30148;DHT22;16960;49.404;8.248;2023-05-19T10:14:03;21.80;39.80
30148;DHT22;16960;49.404;8.248;2023-05-19T10:16:30;21.90;39.80
30148;DHT22;16960;49.404;8.248;2023-05-19T10:18:58;21.90;39.70
30148;DHT22;16960;49.404;8.248;2023-05-19T10:21:26;22.00;39.60
30148;DHT22;16960;49.404;8.248;2023-05-19T10:23:53;22.00;39.50
30148;DHT22;16960;49.404;8.248;2023-05-19T10:26:21;22.00;39.50
30148;DHT22;16960;49.404;8.248;2023-05-19T10:28:49;22.10;39.60
30148;DHT22;16960;49.404;8.248;2023-05-19T10:31:20;22.10;39.60
30148;DHT22;16960;49.404;8.248;2023-05-19T10:34:04;22.10;39.40
30148;DHT22;16960;49.404;8.248;2023-05-19T10:36:42;22.20;39.20
30148;DHT22;16960;49.404;8.248;2023-05-19T10:39:13;22.20;39.00
30148;DHT22;16960;49.404;8.248;2023-05-19T10:41:52;22.30;38.90
30148;DHT22;16960;49.404;8.248;2023-05-19T10:44:39;22.30;38.70
30148;DHT22;16960;49.404;8.248;2023-05-19T10:47:08;22.40;38.70
30148;DHT22;16960;49.404;8.248;2023-05-19T10:49:36;22.40;38.50
30148;DHT22;16960;49.404;8.248;2023-05-19T10:52:18;22.40;38.40
30148;DHT22;16960;49.404;8.248;2023-05-19T10:54:46;22.50;38.30
30148;DHT22;16960;49.404;8.248;2023-05-19T10:57:16;22.50;38.10
30148;DHT22;16960;49.404;8.248;2023-05-19T10:59:43;22.60;38.10
30148;DHT22;16960;49.404;8.248;2023-05-19T11:02:38;22.70;38.30
30148;DHT22;16960;49.404;8.248;2023-05-19T11:05:09;22.70;38.20
30148;DHT22;16960;49.404;8.248;2023-05-19T11:07:40;22.80;38.10
30148;DHT22;16960;49.404;8.248;2023-05-19T11:10:08;22.80;38.10
30148;DHT22;16960;49.404;8.248;2023-05-19T11:12:43;22.80;38.10
30148;DHT22;16960;49.404;8.248;2023-05-19T11:15:12;22.80;38.20
30148;DHT22;16960;49.404;8.248;2023-05-19T11:17:44;22.90;38.10
30148;DHT22;16960;49.404;8.248;2023-05-19T11:20:20;22.90;38.00
30148;DHT22;16960;49.404;8.248;2023-05-19T11:23:03;22.90;37.90
30148;DHT22;16960;49.404;8.248;2023-05-19T11:25:45;22.90;37.90
30148;DHT22;16960;49.404;8.248;2023-05-19T11:28:14;23.00;38.00
30148;DHT22;16960;49.404;8.248;2023-05-19T11:30:43;23.10;38.00
30148;DHT22;16960;49.404;8.248;2023-05-19T11:33:12;23.10;38.00
30148;DHT22;16960;49.404;8.248;2023-05-19T11:35:39;23.10;38.00
30148;DHT22;16960;49.404;8.248;2023-05-19T11:38:17;23.10;38.00
30148;DHT22;16960;49.404;8.248;2023-05-19T11:40:44;23.20;38.00
30148;DHT22;16960;49.404;8.248;2023-05-19T11:43:12;23.20;38.00
30148;DHT22;16960;49.404;8.248;2023-05-19T11:45:39;23.10;38.00
30148;DHT22;16960;49.404;8.248;2023-05-19T11:48:11;23.20;38.00
30148;DHT22;16960;49.404;8.248;2023-05-19T11:50:40;23.20;38.00
30148;DHT22;16960;49.404;8.248;2023-05-19T11:53:10;23.20;38.50
30148;DHT22;16960;49.404;8.248;2023-05-19T11:55:41;23.20;38.00
30148;DHT22;16960;49.404;8.248;2023-05-19T11:58:09;23.20;38.00
30148;DHT22;16960;49.404;8.248;2023-05-19T12:00:38;23.20;38.00
30148;DHT22;16960;49.404;8.248;2023-05-19T12:03:06;23.30;38.10
30148;DHT22;16960;49.404;8.248;2023-05-19T12:05:37;23.30;38.00
30148;DHT22;16960;49.404;8.248;2023-05-19T12:08:05;23.40;37.80
30148;DHT22;16960;49.404;8.248;2023-05-19T12:10:33;23.40;37.50
30148;DHT22;16960;49.404;8.248;2023-05-19T12:13:00;23.40;37.90
30148;DHT22;16960;49.404;8.248;2023-05-19T12:15:30;23.40;37.20
30148;DHT22;16960;49.404;8.248;2023-05-19T12:17:59;23.40;37.30
30148;DHT22;16960;49.404;8.248;2023-05-19T12:20:28;23.40;37.30
30148;DHT22;16960;49.404;8.248;2023-05-19T12:22:59;23.40;37.20
30148;DHT22;16960;49.404;8.248;2023-05-19T12:25:26;23.40;37.20
30148;DHT22;16960;49.404;8.248;2023-05-19T12:27:56;23.40;37.00
30148;DHT22;16960;49.404;8.248;2023-05-19T12:30:25;23.40;37.10
30148;DHT22;16960;49.404;8.248;2023-05-19T12:32:53;23.40;37.20
30148;DHT22;16960;49.404;8.248;2023-05-19T12:35:25;23.40;37.10
30148;DHT22;16960;49.404;8.248;2023-05-19T12:37:52;23.30;37.30
30148;DHT22;16960;49.404;8.248;2023-05-19T12:40:21;23.30;37.40
30148;DHT22;16960;49.404;8.248;2023-05-19T12:42:48;23.40;37.40
30148;DHT22;16960;49.404;8.248;2023-05-19T12:45:19;23.50;37.20
30148;DHT22;16960;49.404;8.248;2023-05-19T12:47:48;23.50;37.10
30148;DHT22;16960;49.404;8.248;2023-05-19T12:50:15;23.60;37.20
30148;DHT22;16960;49.404;8.248;2023-05-19T12:52:44;23.60;37.40
30148;DHT22;16960;49.404;8.248;2023-05-19T12:55:12;23.60;37.40
30148;DHT22;16960;49.404;8.248;2023-05-19T12:57:41;23.60;37.20
30148;DHT22;16960;49.404;8.248;2023-05-19T13:00:15;23.60;37.20
30148;DHT22;16960;49.404;8.248;2023-05-19T13:02:56;23.60;37.20
30148;DHT22;16960;49.404;8.248;2023-05-19T13:05:23;23.60;37.10
30148;DHT22;16960;49.404;8.248;2023-05-19T13:07:57;23.60;37.10
30148;DHT22;16960;49.404;8.248;2023-05-19T13:10:25;23.50;37.30
30148;DHT22;16960;49.404;8.248;2023-05-19T13:12:54;23.50;37.50
30148;DHT22;16960;49.404;8.248;2023-05-19T13:15:22;23.50;37.30
30148;DHT22;16960;49.404;8.248;2023-05-19T13:17:51;23.50;37.40
30148;DHT22;16960;49.404;8.248;2023-05-19T13:20:18;23.50;37.20
30148;DHT22;16960;49.404;8.248;2023-05-19T13:22:46;23.40;37.10
30148;DHT22;16960;49.404;8.248;2023-05-19T13:25:13;23.40;37.20
30148;DHT22;16960;49.404;8.248;2023-05-19T13:27:40;23.40;37.50
30148;DHT22;16960;49.404;8.248;2023-05-19T13:30:09;23.40;37.90
30148;DHT22;16960;49.404;8.248;2023-05-19T13:32:36;23.30;37.80
30148;DHT22;16960;49.404;8.248;2023-05-19T13:35:04;23.30;37.60
30148;DHT22;16960;49.404;8.248;2023-05-19T13:37:31;23.30;37.50
30148;DHT22;16960;49.404;8.248;2023-05-19T13:39:58;23.20;37.40
30148;DHT22;16960;49.404;8.248;2023-05-19T13:42:25;23.30;37.50
30148;DHT22;16960;49.404;8.248;2023-05-19T13:44:53;23.20;37.40
30148;DHT22;16960;49.404;8.248;2023-05-19T13:47:22;23.20;37.40
30148;DHT22;16960;49.404;8.248;2023-05-19T13:49:49;23.20;37.40
30148;DHT22;16960;49.404;8.248;2023-05-19T13:52:16;23.20;37.40
30148;DHT22;16960;49.404;8.248;2023-05-19T13:54:43;23.20;37.50
30148;DHT22;16960;49.404;8.248;2023-05-19T13:57:10;23.20;37.50
30148;DHT22;16960;49.404;8.248;2023-05-19T13:59:37;23.20;37.50
30148;DHT22;16960;49.404;8.248;2023-05-19T14:02:33;23.20;37.60
30148;DHT22;16960;49.404;8.248;2023-05-19T14:05:00;23.10;37.70
30148;DHT22;16960;49.404;8.248;2023-05-19T14:07:28;23.10;37.70
30148;DHT22;16960;49.404;8.248;2023-05-19T14:09:55;23.10;37.70
30148;DHT22;16960;49.404;8.248;2023-05-19T14:12:22;23.10;37.80
30148;DHT22;16960;49.404;8.248;2023-05-19T14:14:48;23.00;37.60
30148;DHT22;16960;49.404;8.248;2023-05-19T14:17:15;23.00;37.70
30148;DHT22;16960;49.404;8.248;2023-05-19T14:19:44;23.00;37.70
30148;DHT22;16960;49.404;8.248;2023-05-19T14:22:10;23.00;37.60
30148;DHT22;16960;49.404;8.248;2023-05-19T14:24:38;23.00;37.70
30148;DHT22;16960;49.404;8.248;2023-05-19T14:27:06;23.00;37.70
30148;DHT22;16960;49.404;8.248;2023-05-19T14:29:33;23.00;38.20
30148;DHT22;16960;49.404;8.248;2023-05-19T14:32:00;22.90;37.60
30148;DHT22;16960;49.404;8.248;2023-05-19T14:34:27;22.90;37.70
30148;DHT22;16960;49.404;8.248;2023-05-19T14:36:55;22.90;37.70
30148;DHT22;16960;49.404;8.248;2023-05-19T14:39:22;22.90;37.70
30148;DHT22;16960;49.404;8.248;2023-05-19T14:41:49;22.90;37.80
30148;DHT22;16960;49.404;8.248;2023-05-19T14:44:17;22.80;37.60
30148;DHT22;16960;49.404;8.248;2023-05-19T14:46:44;22.80;37.70
30148;DHT22;16960;49.404;8.248;2023-05-19T14:49:11;22.90;37.70
30148;DHT22;16960;49.404;8.248;2023-05-19T14:51:38;22.80;37.50
30148;DHT22;16960;49.404;8.248;2023-05-19T14:54:06;22.80;37.50
30148;DHT22;16960;49.404;8.248;2023-05-19T14:56:33;22.80;37.50
30148;DHT22;16960;49.404;8.248;2023-05-19T14:59:00;22.80;37.50
30148;DHT22;16960;49.404;8.248;2023-05-19T15:01:28;22.80;37.50
30148;DHT22;16960;49.404;8.248;2023-05-19T15:03:55;22.80;37.40
30148;DHT22;16960;49.404;8.248;2023-05-19T15:06:22;22.80;37.40
30148;DHT22;16960;49.404;8.248;2023-05-19T15:08:49;22.80;37.50
30148;DHT22;16960;49.404;8.248;2023-05-19T15:11:17;22.80;37.40
30148;DHT22;16960;49.404;8.248;2023-05-19T15:13:45;22.80;37.40
30148;DHT22;16960;49.404;8.248;2023-05-19T15:16:12;22.80;37.40
30148;DHT22;16960;49.404;8.248;2023-05-19T15:18:39;22.80;37.30
30148;DHT22;16960;49.404;8.248;2023-05-19T15:21:05;22.90;37.30
30148;DHT22;16960;49.404;8.248;2023-05-19T15:23:32;22.90;37.30
30148;DHT22;16960;49.404;8.248;2023-05-19T15:25:59;22.90;37.30
30148;DHT22;16960;49.404;8.248;2023-05-19T15:28:28;22.90;37.30
30148;DHT22;16960;49.404;8.248;2023-05-19T15:30:54;22.90;37.30
30148;DHT22;16960;49.404;8.248;2023-05-19T15:33:21;22.80;37.20
30148;DHT22;16960;49.404;8.248;2023-05-19T15:35:48;22.90;37.30
30148;DHT22;16960;49.404;8.248;2023-05-19T15:38:17;22.90;37.30